createdAt,value
2022-11-28T00:01:17.842Z,6.37
2022-11-28T00:03:44.914Z,6.39
2022-11-28T00:06:13.493Z,6.39
2022-11-28T00:08:40.595Z,6.40
2022-11-28T00:11:10.492Z,6.40
2022-11-28T00:13:37.982Z,6.42
2022-11-28T00:16:07.319Z,6.43
2022-11-28T00:18:34.881Z,6.43
2022-11-28T00:21:03.506Z,6.44
2022-11-28T00:23:33.243Z,6.43
2022-11-28T00:26:03.777Z,6.43
2022-11-28T00:28:31.130Z,6.44
2022-11-28T00:30:58.532Z,6.42
2022-11-28T00:33:25.577Z,6.42
2022-11-28T00:35:58.391Z,6.42
2022-11-28T00:38:25.550Z,6.40
2022-11-28T00:41:00.736Z,6.41
2022-11-28T00:43:28.588Z,6.41
2022-11-28T00:45:55.778Z,6.40
2022-11-28T00:48:23.301Z,6.38
2022-11-28T00:50:50.701Z,6.37
2022-11-28T00:53:17.909Z,6.37
2022-11-28T00:55:44.929Z,6.36
2022-11-28T00:58:13.636Z,6.36
2022-11-28T01:00:40.668Z,6.37
2022-11-28T01:03:07.734Z,6.36
2022-11-28T01:05:40.557Z,6.35
2022-11-28T01:08:07.801Z,6.35
2022-11-28T01:10:38.613Z,6.33
2022-11-28T01:13:05.647Z,6.33
2022-11-28T01:15:34.124Z,6.33
2022-11-28T01:18:02.673Z,6.32
2022-11-28T01:20:29.625Z,6.32
2022-11-28T01:22:56.552Z,6.32
2022-11-28T01:25:23.728Z,6.32
2022-11-28T01:27:50.703Z,6.31
2022-11-28T01:30:18.055Z,6.33
2022-11-28T01:32:46.812Z,6.34
2022-11-28T01:35:13.784Z,6.35
2022-11-28T01:37:40.854Z,6.36
2022-11-28T01:40:08.897Z,6.37
2022-11-28T01:42:35.896Z,6.36
2022-11-28T01:45:14.226Z,6.37
2022-11-28T01:47:41.542Z,6.38
2022-11-28T01:50:11.062Z,6.40
2022-11-28T01:52:40.282Z,6.41
2022-11-28T01:55:08.221Z,6.41
2022-11-28T01:57:35.348Z,6.42
2022-11-28T02:00:07.803Z,6.42
2022-11-28T02:02:44.264Z,6.42
2022-11-28T02:05:12.733Z,6.41
2022-11-28T02:07:40.292Z,6.39
2022-11-28T02:10:10.700Z,6.39
2022-11-28T02:13:11.096Z,6.40
2022-11-28T02:16:00.164Z,6.38
2022-11-28T02:18:39.105Z,6.35
2022-11-28T02:21:23.051Z,6.31
2022-11-28T02:24:25.247Z,6.27
2022-11-28T02:27:03.467Z,6.24
2022-11-28T02:30:03.346Z,6.24
2022-11-28T02:32:50.920Z,6.23
2022-11-28T02:35:22.102Z,6.17
2022-11-28T02:38:02.288Z,6.16
2022-11-28T02:40:37.739Z,6.13
2022-11-28T02:43:11.526Z,6.13
2022-11-28T02:45:46.243Z,6.14
2022-11-28T02:48:22.920Z,6.13
2022-11-28T02:50:55.780Z,6.12
2022-11-28T02:53:28.880Z,6.12
2022-11-28T02:55:57.426Z,6.10
2022-11-28T02:58:24.501Z,6.08
2022-11-28T03:00:52.610Z,6.03
2022-11-28T03:03:46.239Z,5.91
2022-11-28T03:06:22.108Z,5.81
2022-11-28T03:09:04.095Z,5.76
2022-11-28T03:11:46.433Z,5.75
2022-11-28T03:14:22.923Z,5.71
2022-11-28T03:16:57.111Z,5.65
2022-11-28T03:19:30.940Z,5.55
2022-11-28T03:22:07.544Z,5.50
2022-11-28T03:24:38.155Z,5.55
2022-11-28T03:27:09.999Z,5.57
2022-11-28T03:29:41.910Z,5.62
2022-11-28T03:32:12.060Z,5.65
2022-11-28T03:34:44.764Z,5.69
2022-11-28T03:37:16.745Z,5.68
2022-11-28T03:39:48.829Z,5.69
2022-11-28T03:42:21.088Z,5.68
2022-11-28T03:44:54.319Z,5.71
2022-11-28T03:47:23.211Z,5.72
2022-11-28T03:49:54.203Z,5.73
2022-11-28T03:52:27.495Z,5.75
2022-11-28T03:54:59.436Z,5.76
2022-11-28T03:57:34.248Z,5.76
2022-11-28T04:00:04.790Z,5.77
2022-11-28T04:02:45.892Z,5.79
2022-11-28T04:05:19.633Z,5.78
2022-11-28T04:07:49.455Z,5.80
2022-11-28T04:10:21.862Z,5.78
2022-11-28T04:12:55.254Z,5.78
2022-11-28T04:15:30.644Z,5.78
2022-11-28T04:18:03.509Z,5.79
2022-11-28T04:20:37.354Z,5.77
2022-11-28T04:23:09.442Z,5.78
2022-11-28T04:25:40.352Z,5.76
2022-11-28T04:28:11.642Z,5.75
2022-11-28T04:30:40.724Z,5.74
2022-11-28T04:33:10.065Z,5.73
2022-11-28T04:35:42.242Z,5.70
2022-11-28T04:38:11.848Z,5.71
2022-11-28T04:40:44.676Z,5.71
2022-11-28T04:43:18.447Z,5.68
2022-11-28T04:45:50.746Z,5.68
2022-11-28T04:48:18.219Z,5.68
2022-11-28T04:50:50.324Z,5.65
2022-11-28T04:53:22.129Z,5.63
2022-11-28T04:55:55.281Z,5.63
2022-11-28T04:58:26.108Z,5.62
2022-11-28T05:00:56.294Z,5.61
2022-11-28T05:03:27.385Z,5.61
2022-11-28T05:05:55.873Z,5.59
2022-11-28T05:08:22.941Z,5.59
2022-11-28T05:10:50.004Z,5.59
2022-11-28T05:13:17.153Z,5.58
2022-11-28T05:15:44.097Z,5.60
2022-11-28T05:18:11.070Z,5.58
2022-11-28T05:20:38.711Z,5.59
2022-11-28T05:23:07.114Z,5.59
2022-11-28T05:25:34.054Z,5.59
2022-11-28T05:28:01.057Z,5.59
2022-11-28T05:30:27.940Z,5.60
2022-11-28T05:32:54.893Z,5.60
2022-11-28T05:35:21.874Z,5.58
2022-11-28T05:37:48.790Z,5.58
2022-11-28T05:40:17.536Z,5.58
2022-11-28T05:42:44.436Z,5.59
2022-11-28T05:45:11.558Z,5.59
2022-11-28T05:47:38.775Z,5.60
2022-11-28T05:50:07.269Z,5.60
2022-11-28T05:52:34.318Z,5.61
2022-11-28T05:55:01.683Z,5.61
2022-11-28T05:57:32.081Z,5.59
2022-11-28T05:59:59.162Z,5.60
2022-11-28T06:02:26.403Z,5.59
2022-11-28T06:04:53.556Z,5.60
2022-11-28T06:07:20.629Z,5.63
2022-11-28T06:09:47.659Z,5.63
2022-11-28T06:12:14.613Z,5.64
2022-11-28T06:14:42.983Z,5.61
2022-11-28T06:17:09.993Z,5.59
2022-11-28T06:19:37.056Z,5.60
2022-11-28T06:22:04.093Z,5.61
2022-11-28T06:24:31.069Z,5.62
2022-11-28T06:26:57.972Z,5.65
2022-11-28T06:29:24.947Z,5.67
2022-11-28T06:31:53.532Z,5.69
2022-11-28T06:34:20.507Z,5.72
2022-11-28T06:36:47.820Z,5.74
2022-11-28T06:39:16.081Z,5.70
2022-11-28T06:41:43.813Z,5.72
2022-11-28T06:44:14.204Z,5.75
2022-11-28T06:46:41.569Z,5.75
2022-11-28T06:49:11.009Z,5.75
2022-11-28T06:51:38.037Z,5.75
2022-11-28T06:54:06.120Z,5.76
2022-11-28T06:56:33.074Z,5.77
2022-11-28T06:59:00.841Z,5.78
2022-11-28T07:01:30.180Z,5.78
2022-11-28T07:03:57.492Z,5.80
2022-11-28T07:06:26.785Z,5.85
2022-11-28T07:08:55.182Z,5.89
2022-11-28T07:11:23.701Z,5.92
2022-11-28T07:13:51.435Z,5.91
2022-11-28T07:16:20.453Z,5.90
2022-11-28T07:18:48.081Z,5.91
2022-11-28T07:21:15.567Z,5.93
2022-11-28T07:23:44.151Z,5.96
2022-11-28T07:26:12.876Z,5.97
2022-11-28T07:28:40.538Z,5.93
2022-11-28T07:31:10.862Z,5.91
2022-11-28T07:33:39.004Z,5.91
2022-11-28T07:36:08.452Z,5.92
2022-11-28T07:38:35.439Z,5.93
2022-11-28T07:41:05.275Z,5.94
2022-11-28T07:43:32.196Z,5.95
2022-11-28T07:46:01.518Z,6.00
2022-11-28T07:48:28.796Z,6.06
2022-11-28T07:50:55.930Z,6.11
2022-11-28T07:53:22.880Z,6.12
2022-11-28T07:55:49.832Z,6.13
2022-11-28T07:58:18.138Z,6.15
2022-11-28T08:00:45.354Z,6.15
2022-11-28T08:03:12.282Z,6.19
2022-11-28T08:05:39.213Z,6.24
2022-11-28T08:08:06.413Z,6.33
2022-11-28T08:10:33.386Z,6.37
2022-11-28T08:13:00.671Z,6.42
2022-11-28T08:15:31.704Z,6.43
2022-11-28T08:17:58.657Z,6.43
2022-11-28T08:20:25.747Z,6.48
2022-11-28T08:22:52.664Z,6.48
2022-11-28T08:25:19.605Z,6.53
2022-11-28T08:27:46.626Z,6.57
2022-11-28T08:30:14.047Z,6.57
2022-11-28T08:32:42.514Z,6.54
2022-11-28T08:35:09.482Z,6.55
2022-11-28T08:37:36.400Z,6.54
2022-11-28T08:40:03.959Z,6.51
2022-11-28T08:42:31.057Z,6.45
2022-11-28T08:44:58.103Z,6.43
2022-11-28T08:47:25.103Z,6.48
2022-11-28T08:49:53.440Z,6.53
2022-11-28T08:52:20.421Z,6.57
2022-11-28T08:54:47.346Z,6.61
2022-11-28T08:57:14.256Z,6.52
2022-11-28T08:59:41.501Z,6.49
2022-11-28T09:02:10.849Z,6.45
2022-11-28T09:04:37.781Z,6.41
2022-11-28T09:07:06.149Z,6.38
2022-11-28T09:09:33.115Z,6.40
2022-11-28T09:12:00.056Z,6.43
2022-11-28T09:14:27.746Z,6.39
2022-11-28T09:16:54.862Z,6.40
2022-11-28T09:19:22.494Z,6.46
2022-11-28T09:21:54.560Z,6.55
2022-11-28T09:24:25.786Z,6.61
2022-11-28T09:26:53.233Z,6.69
2022-11-28T09:29:23.131Z,6.75
2022-11-28T09:31:50.082Z,6.75
2022-11-28T09:34:17.011Z,6.73
2022-11-28T09:36:44.092Z,6.66
2022-11-28T09:39:11.027Z,6.65
2022-11-28T09:41:54.311Z,6.63
2022-11-28T09:44:25.742Z,6.65
2022-11-28T09:46:55.293Z,6.67
2022-11-28T09:49:40.253Z,6.72
2022-11-28T09:52:17.707Z,6.74
2022-11-28T09:54:49.945Z,6.72
2022-11-28T09:57:26.047Z,6.74
2022-11-28T09:59:53.268Z,6.79
2022-11-28T10:02:28.270Z,6.81
2022-11-28T10:05:08.304Z,6.83
2022-11-28T10:07:51.008Z,6.88
2022-11-28T10:10:31.521Z,6.89
2022-11-28T10:13:05.581Z,6.92
2022-11-28T10:15:44.509Z,6.95
2022-11-28T10:18:24.217Z,6.92
2022-11-28T10:20:57.639Z,6.93
2022-11-28T10:23:28.672Z,6.91
2022-11-28T10:25:59.285Z,6.88
2022-11-28T10:28:32.171Z,6.85
2022-11-28T10:31:04.786Z,6.82
2022-11-28T10:33:38.086Z,6.86
2022-11-28T10:36:06.673Z,6.91
2022-11-28T10:38:34.984Z,6.91
2022-11-28T10:41:07.998Z,7.00
2022-11-28T10:43:44.164Z,7.06
2022-11-28T10:46:30.354Z,7.08
2022-11-28T10:49:07.445Z,7.09
2022-11-28T10:51:43.895Z,7.13
2022-11-28T10:54:23.008Z,7.10
2022-11-28T10:57:01.102Z,7.08
2022-11-28T10:59:38.368Z,7.03
2022-11-28T11:02:20.838Z,7.01
2022-11-28T11:04:48.268Z,7.04
2022-11-28T11:07:23.936Z,7.10
2022-11-28T11:09:53.716Z,7.20
2022-11-28T11:12:24.164Z,7.14
2022-11-28T11:14:53.026Z,7.11
2022-11-28T11:17:31.376Z,7.09
2022-11-28T11:20:02.527Z,7.05
2022-11-28T11:22:31.959Z,7.06
2022-11-28T11:25:07.077Z,7.07
2022-11-28T11:27:36.684Z,7.03
2022-11-28T11:30:18.872Z,6.95
2022-11-28T11:32:51.447Z,6.93
2022-11-28T11:35:23.212Z,6.93
2022-11-28T11:37:50.513Z,6.92
2022-11-28T11:40:27.005Z,6.91
2022-11-28T11:42:56.060Z,6.91
2022-11-28T11:45:30.088Z,6.88
2022-11-28T11:47:57.505Z,6.89
2022-11-28T11:50:27.939Z,6.89
2022-11-28T11:53:07.140Z,6.88
2022-11-28T11:55:40.699Z,6.87
2022-11-28T11:58:13.727Z,6.87
2022-11-28T12:00:43.559Z,6.86
2022-11-28T12:03:18.748Z,6.89
2022-11-28T12:06:12.872Z,6.93
2022-11-28T12:08:42.041Z,6.86
2022-11-28T12:11:16.736Z,6.85
2022-11-28T12:13:44.346Z,6.83
2022-11-28T12:16:29.096Z,6.76
2022-11-28T12:19:02.109Z,6.74
2022-11-28T12:21:37.890Z,6.74
2022-11-28T12:24:10.255Z,6.73
2022-11-28T12:26:44.462Z,6.73
2022-11-28T12:29:30.573Z,6.72
2022-11-28T12:32:10.901Z,6.68
2022-11-28T12:34:45.451Z,6.66
2022-11-28T12:37:33.069Z,6.66
2022-11-28T12:40:15.621Z,6.68
2022-11-28T12:42:55.280Z,6.68
2022-11-28T12:45:34.937Z,6.66
2022-11-28T12:48:16.798Z,6.62
2022-11-28T12:50:46.784Z,6.63
2022-11-28T12:53:30.506Z,6.65
2022-11-28T12:56:08.766Z,6.68
2022-11-28T12:58:44.349Z,6.64
2022-11-28T13:01:27.510Z,6.67
2022-11-28T13:04:06.020Z,6.66
2022-11-28T13:06:42.132Z,6.59
2022-11-28T13:09:25.774Z,6.60
2022-11-28T13:12:02.427Z,6.58
2022-11-28T13:14:38.062Z,6.60
2022-11-28T13:17:16.633Z,6.58
2022-11-28T13:19:52.210Z,6.55
2022-11-28T13:22:23.735Z,6.54
2022-11-28T13:25:01.670Z,6.52
2022-11-28T13:27:36.565Z,6.49
2022-11-28T13:30:14.407Z,6.48
2022-11-28T13:32:47.031Z,6.46
2022-11-28T13:35:17.470Z,6.46
2022-11-28T13:40:42.905Z,6.42
2022-11-28T13:43:16.678Z,6.42
2022-11-28T13:45:45.617Z,6.44
2022-11-28T13:49:13.257Z,6.39
2022-11-28T13:51:40.546Z,6.33
2022-11-28T13:54:44.967Z,6.32
2022-11-28T13:57:22.647Z,6.31
2022-11-28T13:59:54.456Z,6.32
2022-11-28T14:02:30.522Z,6.32
2022-11-28T14:04:57.547Z,6.34
2022-11-28T14:07:30.418Z,6.28
2022-11-28T14:10:16.479Z,6.25
2022-11-28T14:12:53.619Z,6.21
2022-11-28T14:15:29.344Z,6.19
2022-11-28T14:18:39.651Z,6.17
2022-11-28T14:21:12.213Z,6.14
2022-11-28T14:23:47.234Z,6.14
2022-11-28T14:26:23.899Z,6.15
2022-11-28T14:28:52.154Z,6.14
2022-11-28T14:31:29.657Z,6.14
2022-11-28T14:33:59.246Z,6.13
2022-11-28T14:36:29.782Z,6.14
2022-11-28T14:39:32.470Z,6.17
2022-11-28T14:45:43.920Z,6.13
2022-11-28T14:48:17.951Z,6.10
2022-11-28T14:50:52.539Z,6.11
2022-11-28T14:53:44.759Z,6.12
2022-11-28T14:56:23.737Z,6.09
2022-11-28T14:58:53.058Z,6.07
2022-11-28T15:01:36.450Z,6.11
2022-11-28T15:04:34.635Z,6.14
2022-11-28T15:07:03.925Z,6.13
2022-11-28T15:09:42.693Z,6.12
2022-11-28T15:12:23.493Z,6.13
2022-11-28T15:14:57.924Z,6.12
2022-11-28T15:17:30.684Z,6.09
2022-11-28T15:20:01.973Z,6.06
2022-11-28T15:22:31.904Z,6.03
2022-11-28T15:24:59.658Z,6.00
2022-11-28T15:27:28.327Z,5.99
2022-11-28T15:30:00.050Z,5.97
2022-11-28T15:32:30.193Z,6.00
2022-11-28T15:35:01.515Z,6.01
2022-11-28T15:37:30.994Z,6.03
2022-11-28T15:39:59.838Z,6.02
2022-11-28T15:42:30.779Z,5.99
2022-11-28T15:45:05.273Z,6.00
2022-11-28T15:47:32.580Z,5.97
2022-11-28T15:50:02.878Z,5.97
2022-11-28T15:52:30.477Z,5.98
2022-11-28T15:54:57.818Z,5.99
2022-11-28T15:57:28.595Z,5.99
2022-11-28T15:59:57.239Z,5.98
2022-11-28T16:02:29.351Z,6.01
2022-11-28T16:05:04.611Z,6.02
2022-11-28T16:07:33.274Z,6.03
2022-11-28T16:10:05.178Z,6.02
2022-11-28T16:12:32.518Z,6.03
2022-11-28T16:15:05.176Z,6.05
2022-11-28T16:17:34.094Z,6.05
2022-11-28T16:20:02.667Z,6.03
2022-11-28T16:22:36.338Z,6.04
2022-11-28T16:25:18.933Z,6.03
2022-11-28T16:27:48.726Z,6.04
2022-11-28T16:30:32.060Z,6.03
2022-11-28T16:32:59.596Z,6.04
2022-11-28T16:35:28.842Z,6.05
2022-11-28T16:38:14.119Z,6.04
2022-11-28T16:40:41.706Z,6.03
2022-11-28T16:43:19.600Z,6.02
2022-11-28T16:45:58.007Z,6.03
2022-11-28T16:48:27.268Z,6.05
2022-11-28T16:51:32.135Z,6.04
2022-11-28T16:54:00.254Z,6.04
2022-11-28T16:56:43.961Z,6.01
2022-11-28T16:59:13.734Z,6.00
2022-11-28T17:01:41.391Z,5.98
2022-11-28T17:04:19.589Z,5.97
2022-11-28T17:06:48.466Z,5.96
2022-11-28T17:09:15.457Z,5.93
2022-11-28T17:11:45.926Z,5.92
2022-11-28T17:14:14.093Z,5.89
2022-11-28T17:16:42.213Z,5.88
2022-11-28T17:19:09.555Z,5.88
2022-11-28T17:21:39.349Z,5.90
2022-11-28T17:24:14.951Z,5.85
2022-11-28T17:26:41.896Z,5.79
2022-11-28T17:29:11.066Z,5.78
2022-11-28T17:31:42.098Z,5.78
2022-11-28T17:34:15.985Z,5.81
2022-11-28T17:36:43.438Z,5.80
2022-11-28T17:39:12.003Z,5.78
2022-11-28T17:41:40.134Z,5.76
2022-11-28T17:44:10.020Z,5.75
2022-11-28T17:46:37.221Z,5.74
2022-11-28T17:49:04.196Z,5.75
2022-11-28T17:51:31.437Z,5.74
2022-11-28T17:53:58.470Z,5.74
2022-11-28T17:56:27.100Z,5.76
2022-11-28T17:58:54.218Z,5.77
2022-11-28T18:01:26.235Z,5.79
2022-11-28T18:03:58.268Z,5.75
2022-11-28T18:06:25.467Z,5.72
2022-11-28T18:08:53.360Z,5.71
2022-11-28T18:11:21.132Z,5.73
2022-11-28T18:13:49.747Z,5.75
2022-11-28T18:16:19.613Z,5.76
2022-11-28T18:18:46.908Z,5.75
2022-11-28T18:21:15.199Z,5.73
2022-11-28T18:23:45.429Z,5.72
2022-11-28T18:26:14.498Z,5.68
2022-11-28T18:28:42.206Z,5.65
2022-11-28T18:31:12.692Z,5.65
2022-11-28T18:33:40.067Z,5.62
2022-11-28T18:36:11.526Z,5.60
2022-11-28T18:38:39.091Z,5.57
2022-11-28T18:41:09.363Z,5.54
2022-11-28T18:43:36.807Z,5.53
2022-11-28T18:46:05.761Z,5.49
2022-11-28T18:48:36.247Z,5.48
2022-11-28T18:51:10.467Z,5.47
2022-11-28T18:53:38.011Z,5.43
2022-11-28T18:56:07.463Z,5.43
2022-11-28T18:58:35.949Z,5.46
2022-11-28T19:01:11.182Z,5.44
2022-11-28T19:03:39.859Z,5.44
2022-11-28T19:06:08.743Z,5.44
2022-11-28T19:08:36.151Z,5.44
2022-11-28T19:11:06.997Z,5.43
2022-11-28T19:13:33.966Z,5.42
2022-11-28T19:16:05.315Z,5.41
2022-11-28T19:18:33.101Z,5.39
2022-11-28T19:21:04.700Z,5.37
2022-11-28T19:23:31.757Z,5.36
2022-11-28T19:26:01.270Z,5.34
2022-11-28T19:28:28.246Z,5.34
2022-11-28T19:30:57.585Z,5.34
2022-11-28T19:33:24.630Z,5.34
2022-11-28T19:35:51.568Z,5.34
2022-11-28T19:38:20.071Z,5.33
2022-11-28T19:40:47.649Z,5.30
2022-11-28T19:43:14.585Z,5.30
2022-11-28T19:45:41.572Z,5.29
2022-11-28T19:48:10.764Z,5.25
2022-11-28T19:50:37.847Z,5.22
2022-11-28T19:53:04.864Z,5.22
2022-11-28T19:55:34.876Z,5.18
2022-11-28T19:58:01.918Z,5.16
2022-11-28T20:00:29.325Z,5.13
2022-11-28T20:02:56.300Z,5.14
2022-11-28T20:05:23.281Z,5.14
2022-11-28T20:07:56.855Z,5.14
2022-11-28T20:10:26.232Z,5.09
2022-11-28T20:12:54.995Z,5.09
2022-11-28T20:15:22.473Z,5.06
2022-11-28T20:17:49.923Z,5.05
2022-11-28T20:20:17.373Z,5.02
2022-11-28T20:22:44.391Z,5.01
2022-11-28T20:25:14.305Z,4.96
2022-11-28T20:27:43.490Z,4.95
2022-11-28T20:30:13.309Z,4.96
2022-11-28T20:32:40.281Z,4.95
2022-11-28T20:35:09.660Z,4.98
2022-11-28T20:37:39.050Z,4.98
2022-11-28T20:40:07.464Z,5.01
2022-11-28T20:42:39.670Z,4.96
2022-11-28T20:45:07.801Z,4.90
2022-11-28T20:47:36.113Z,4.88
2022-11-28T20:50:03.294Z,4.88
2022-11-28T20:52:30.251Z,4.90
2022-11-28T20:54:57.287Z,4.92
2022-11-28T20:57:24.185Z,4.91
2022-11-28T20:59:51.141Z,4.93
2022-11-28T21:02:18.129Z,4.90
2022-11-28T21:04:46.484Z,4.87
2022-11-28T21:07:13.405Z,4.86
2022-11-28T21:09:40.314Z,4.84
2022-11-28T21:12:08.304Z,4.80
2022-11-28T21:14:35.267Z,4.76
2022-11-28T21:17:02.360Z,4.73
2022-11-28T21:19:29.847Z,4.73
2022-11-28T21:21:58.233Z,4.77
2022-11-28T21:24:25.233Z,4.78
2022-11-28T21:26:54.470Z,4.78
2022-11-28T21:29:23.225Z,4.83
2022-11-28T21:31:50.730Z,4.86
2022-11-28T21:34:19.505Z,4.88
2022-11-28T21:36:47.117Z,4.89
2022-11-28T21:39:16.781Z,4.86
2022-11-28T21:41:43.784Z,4.85
2022-11-28T21:44:11.025Z,4.84
2022-11-28T21:46:38.104Z,4.85
2022-11-28T21:49:05.743Z,4.82
2022-11-28T21:51:36.160Z,4.81
2022-11-28T21:54:03.704Z,4.79
2022-11-28T21:56:33.008Z,4.77
2022-11-28T21:58:59.929Z,4.78
2022-11-28T22:01:26.942Z,4.77
2022-11-28T22:03:59.006Z,4.77
2022-11-28T22:06:29.082Z,4.77
2022-11-28T22:08:56.542Z,4.72
2022-11-28T22:11:24.299Z,4.70
2022-11-28T22:13:52.933Z,4.68
2022-11-28T22:16:21.936Z,4.68
2022-11-28T22:18:49.825Z,4.68
2022-11-28T22:24:05.950Z,4.65
2022-11-28T22:26:33.383Z,4.64
2022-11-28T22:29:04.007Z,4.61
2022-11-28T22:31:32.091Z,4.58
2022-11-28T22:33:59.175Z,4.56
2022-11-28T22:36:26.240Z,4.52
2022-11-28T22:38:56.217Z,4.50
2022-11-28T22:41:28.850Z,4.46
2022-11-28T22:44:00.416Z,4.42
2022-11-28T22:46:29.970Z,4.39
2022-11-28T22:49:00.048Z,4.38
2022-11-28T22:51:27.292Z,4.38
2022-11-28T22:53:55.457Z,4.37
2022-11-28T22:56:25.026Z,4.35
2022-11-28T22:58:52.396Z,4.32
2022-11-28T23:01:22.331Z,4.32
2022-11-28T23:03:51.409Z,4.32
2022-11-28T23:06:20.300Z,4.30
2022-11-28T23:08:53.765Z,4.28
2022-11-28T23:11:24.932Z,4.29
2022-11-28T23:13:52.766Z,4.26
2022-11-28T23:16:22.524Z,4.26
2022-11-28T23:18:54.029Z,4.27
2022-11-28T23:21:25.406Z,4.27
2022-11-28T23:23:53.145Z,4.29
2022-11-28T23:26:25.329Z,4.28
2022-11-28T23:28:53.546Z,4.26
2022-11-28T23:31:24.043Z,4.26
2022-11-28T23:33:52.784Z,4.24
2022-11-28T23:36:22.136Z,4.25
2022-11-28T23:38:51.009Z,4.25
2022-11-28T23:41:18.165Z,4.24
2022-11-28T23:43:45.709Z,4.24
2022-11-28T23:46:13.497Z,4.22
2022-11-28T23:48:43.980Z,4.20
2022-11-28T23:51:13.749Z,4.21
2022-11-28T23:53:41.613Z,4.19
2022-11-28T23:56:11.115Z,4.17
2022-11-28T23:58:38.567Z,4.17
